Terminal Aerodrome Forecast
Issued by NWS

Home | Current Version | Previous Version | Text Only | Print | Product List | Glossary On
Versions: 1 2 3 4 5 6 7 8 9 10 11 12 13 14 15
000
FTUS42 TJSJ 221700
TAFJBQ
TAF
TJBQ 221722Z 2218/2318 07016G21KT P6SM SCT021 SCT070
     FM222230 09009KT P6SM SCT030 SCT050 BKN100
     FM231400 08013KT P6SM VCTS SCT022CB BKN040
      AMD NOT SKED 2302/2311=

USA.gov is the U.S. government's official web portal to all federal, state and local government web resources and services.